Topeka, Kansas
Current Conditions -  °F | °C
As of 9:53 AM on Saturday 22 Nov 2014 (Local Time) from KTOP Reporting Station
Haze Haze  
Wind Chill: 54°   Ceiling: 300
Heat Index: 54°   Visibility: 2mi
Dew Point: 53°   Wind: 15mph
Humidity: 97%   Direction: 180°S
Pressure: 29.93"   Gusts: NA
Location:  39.06°N, 95.68°W
Report Text: KTOP 221553Z 18013KT 2SM BR OVC003 12/12 A2993 RMK AO2 SLP137 T01220117
Loading
Personal Weather Stations






























Interactive Weather Map New forecast layout! Learn more

10-Day Weather Forecast

Advertisements
Track Severe Weather on mobile